Balsamo, Brazil
Current Conditions -  °F | °C
As of 3:00 PM on Monday 22 Dec 2014 (Local Time) from SBSR Reporting Station
Broken Clouds Broken Clouds  
Wind Chill: 84°   Ceiling: 4500
Heat Index: 86°   Visibility: 6mi
Dew Point: 66°   Wind: 8mph
Humidity: 55%   Direction: 30°NNE
Pressure: 29.88"   Gusts: NA
Location:  20.74°S, 49.58°W
Report Text: SBSR 221700Z 03007KT 9999 FEW015 BKN045 BKN080 29/19 Q1012
Loading
Personal Weather Stations






























Interactive Weather Map New forecast layout! Learn more

10-Day Weather Forecast

Advertisements
Track Severe Weather on mobile